createdAt,value
2018-10-18T00:01:49.843Z,14.09
2018-10-18T00:06:42.388Z,14.08
2018-10-18T00:11:35.013Z,14.02
2018-10-18T00:16:27.897Z,13.97
2018-10-18T00:21:20.513Z,13.96
2018-10-18T00:26:13.247Z,13.86
2018-10-18T00:31:05.851Z,13.80
2018-10-18T00:35:58.497Z,13.75
2018-10-18T00:40:51.069Z,13.67
2018-10-18T00:45:43.895Z,13.62
2018-10-18T00:50:36.558Z,13.59
2018-10-18T00:55:29.173Z,13.56
2018-10-18T01:00:21.787Z,13.49
2018-10-18T01:05:14.527Z,13.38
2018-10-18T01:10:07.150Z,13.27
2018-10-18T01:14:59.804Z,13.23
2018-10-18T01:19:52.649Z,13.22
2018-10-18T01:24:45.283Z,13.17
2018-10-18T01:29:37.981Z,13.10
2018-10-18T01:34:30.612Z,13.08
2018-10-18T01:39:23.281Z,13.08
2018-10-18T01:44:15.994Z,13.04
2018-10-18T01:49:08.650Z,12.99
2018-10-18T01:54:01.277Z,12.93
2018-10-18T01:58:53.883Z,12.92
2018-10-18T02:03:46.547Z,12.91
2018-10-18T02:08:39.174Z,12.88
2018-10-18T02:13:31.823Z,12.84
2018-10-18T02:18:24.493Z,12.80
2018-10-18T02:23:17.092Z,12.77
2018-10-18T02:28:09.723Z,12.78
2018-10-18T02:33:02.343Z,12.72
2018-10-18T02:37:54.970Z,12.66
2018-10-18T02:42:47.606Z,12.59
2018-10-18T02:47:40.204Z,12.54
2018-10-18T02:52:32.805Z,12.49
2018-10-18T02:57:25.480Z,12.44
2018-10-18T03:02:18.142Z,12.41
2018-10-18T03:07:10.807Z,12.38
2018-10-18T03:12:03.841Z,12.33
2018-10-18T03:16:56.398Z,12.28
2018-10-18T03:21:49.055Z,12.21
2018-10-18T03:26:41.718Z,12.18
2018-10-18T03:31:34.380Z,12.11
2018-10-18T03:36:27.056Z,12.08
2018-10-18T03:41:19.738Z,12.04
2018-10-18T03:46:12.417Z,12.02
2018-10-18T03:51:05.170Z,11.99
2018-10-18T03:55:57.741Z,11.94
2018-10-18T04:00:50.379Z,11.90
2018-10-18T04:05:43.065Z,11.89
2018-10-18T04:10:35.856Z,11.87
2018-10-18T04:15:28.482Z,11.84
2018-10-18T04:20:21.098Z,11.85
2018-10-18T04:25:13.775Z,11.87
2018-10-18T04:30:06.918Z,11.85
2018-10-18T04:34:59.457Z,11.84
2018-10-18T04:39:52.101Z,11.83
2018-10-18T04:44:44.870Z,11.82
2018-10-18T04:49:37.687Z,11.78
2018-10-18T04:54:30.346Z,11.74
2018-10-18T04:59:22.960Z,11.73
2018-10-18T05:04:16.568Z,11.68
2018-10-18T05:09:09.408Z,11.67
2018-10-18T05:14:01.993Z,11.65
2018-10-18T05:18:54.648Z,11.62
2018-10-18T05:23:47.435Z,11.58
2018-10-18T05:28:40.155Z,11.60
2018-10-18T05:33:32.857Z,11.57
2018-10-18T05:38:25.630Z,11.52
2018-10-18T05:43:18.357Z,11.52
2018-10-18T05:48:10.956Z,11.50
2018-10-18T05:53:03.660Z,11.44
2018-10-18T05:57:56.350Z,11.40
2018-10-18T06:02:49.786Z,11.42
2018-10-18T06:07:42.977Z,11.41
2018-10-18T06:12:35.623Z,11.45
2018-10-18T06:17:28.338Z,11.47
2018-10-18T06:27:24.909Z,11.56
2018-10-18T06:32:17.623Z,11.62
2018-10-18T06:37:10.277Z,11.70
2018-10-18T06:42:02.881Z,11.76
2018-10-18T06:46:55.571Z,11.85
2018-10-18T06:51:48.328Z,11.94
2018-10-18T06:56:40.941Z,12.10
2018-10-18T07:01:33.510Z,12.27
2018-10-18T07:06:26.136Z,12.40
2018-10-18T07:11:18.729Z,12.51
2018-10-18T07:16:11.433Z,12.67
2018-10-18T07:21:04.658Z,12.83
2018-10-18T07:25:57.275Z,13.01
2018-10-18T07:30:50.008Z,13.07
2018-10-18T07:35:42.650Z,13.05
2018-10-18T07:40:35.243Z,13.02
2018-10-18T07:45:27.867Z,13.03
2018-10-18T07:50:20.458Z,13.10
2018-10-18T07:55:13.074Z,13.30
2018-10-18T08:00:08.760Z,13.42
2018-10-18T08:05:01.275Z,13.60
2018-10-18T08:09:53.937Z,13.74
2018-10-18T08:14:46.522Z,13.85
2018-10-18T08:19:39.154Z,14.01
2018-10-18T08:24:31.846Z,14.22
2018-10-18T08:29:24.498Z,14.44
2018-10-18T08:34:17.123Z,14.60
2018-10-18T08:39:10.502Z,14.81
2018-10-18T08:44:03.350Z,15.03
2018-10-18T08:48:55.977Z,15.21
2018-10-18T08:53:48.634Z,15.42
2018-10-18T08:58:41.234Z,15.67
2018-10-18T09:03:33.880Z,15.86
2018-10-18T09:08:26.529Z,16.12
2018-10-18T09:13:19.275Z,16.34
2018-10-18T09:18:11.829Z,16.48
2018-10-18T09:23:05.048Z,16.68
2018-10-18T09:27:57.706Z,16.90
2018-10-18T09:32:50.262Z,17.13
2018-10-18T09:37:42.886Z,17.35
2018-10-18T09:42:35.454Z,17.61
2018-10-18T09:47:28.098Z,17.86
2018-10-18T09:52:20.721Z,18.09
2018-10-18T09:57:13.362Z,18.32
2018-10-18T10:02:11.797Z,18.56
2018-10-18T10:07:04.736Z,18.74
2018-10-18T10:11:57.313Z,18.91
2018-10-18T10:16:49.894Z,19.01
2018-10-18T10:21:42.541Z,19.02
2018-10-18T10:26:35.086Z,19.08
2018-10-18T10:31:28.003Z,19.26
2018-10-18T10:36:20.617Z,19.50
2018-10-18T10:41:13.228Z,19.50
2018-10-18T10:46:05.831Z,19.36
2018-10-18T10:50:58.482Z,19.30
2018-10-18T10:55:51.294Z,19.24
2018-10-18T11:01:22.475Z,19.14
2018-10-18T11:06:15.216Z,19.06
2018-10-18T11:11:08.053Z,19.00
2018-10-18T11:16:01.654Z,18.94
2018-10-18T11:20:54.266Z,18.88
2018-10-18T11:25:46.850Z,18.77
2018-10-18T11:30:39.449Z,18.66
2018-10-18T11:35:32.020Z,18.60
2018-10-18T11:40:24.671Z,18.55
2018-10-18T11:45:17.348Z,18.54
2018-10-18T11:50:10.027Z,18.60
2018-10-18T11:55:02.673Z,18.71
2018-10-18T11:59:55.321Z,18.87
2018-10-18T12:04:47.925Z,19.03
2018-10-18T12:09:40.676Z,19.12
2018-10-18T12:14:33.262Z,19.26
2018-10-18T12:19:25.890Z,19.30
2018-10-18T12:24:18.478Z,19.27
2018-10-18T12:29:11.258Z,19.13
2018-10-18T12:34:04.156Z,19.03
2018-10-18T12:38:56.713Z,18.99
2018-10-18T12:43:49.287Z,18.93
2018-10-18T12:48:42.106Z,18.85
2018-10-18T12:53:34.742Z,18.77
2018-10-18T12:58:27.422Z,18.65
2018-10-18T13:03:20.069Z,18.56
2018-10-18T13:08:12.811Z,18.54
2018-10-18T13:13:05.397Z,18.47
2018-10-18T13:17:58.169Z,18.43
2018-10-18T13:22:51.027Z,18.37
2018-10-18T13:27:43.757Z,18.34
2018-10-18T13:32:36.463Z,18.31
2018-10-18T13:37:29.246Z,18.29
2018-10-18T13:42:21.934Z,18.26
2018-10-18T13:47:14.902Z,18.24
2018-10-18T13:52:07.562Z,18.21
2018-10-18T13:57:00.158Z,18.18
2018-10-18T14:01:52.818Z,18.16
2018-10-18T14:06:45.624Z,18.15
2018-10-18T14:11:38.343Z,18.11
2018-10-18T14:16:30.953Z,18.07
2018-10-18T14:21:23.656Z,18.02
2018-10-18T14:26:16.684Z,17.96
2018-10-18T14:31:09.218Z,17.92
2018-10-18T14:36:01.846Z,17.87
2018-10-18T14:40:54.592Z,17.81
2018-10-18T14:45:47.439Z,17.78
2018-10-18T14:50:40.195Z,17.73
2018-10-18T14:55:33.081Z,17.71
2018-10-18T15:00:25.888Z,17.70
2018-10-18T15:05:18.633Z,17.67
2018-10-18T15:10:12.309Z,17.65
2018-10-18T15:15:06.571Z,17.64
2018-10-18T15:19:59.165Z,17.62
2018-10-18T15:24:51.757Z,17.61
2018-10-18T15:29:44.434Z,17.58
2018-10-18T15:34:37.113Z,17.57
2018-10-18T15:39:29.807Z,17.54
2018-10-18T15:44:22.693Z,17.53
2018-10-18T15:49:15.181Z,17.50
2018-10-18T15:54:07.877Z,17.47
2018-10-18T15:59:00.462Z,17.46
2018-10-18T16:03:53.055Z,17.44
2018-10-18T16:08:45.625Z,17.43
2018-10-18T16:13:38.313Z,17.42
2018-10-18T16:18:30.848Z,17.38
2018-10-18T16:23:23.500Z,17.35
2018-10-18T16:28:16.084Z,17.35
2018-10-18T16:33:08.934Z,17.32
2018-10-18T16:38:01.530Z,17.28
2018-10-18T16:42:54.098Z,17.23
2018-10-18T16:47:46.725Z,17.17
2018-10-18T16:52:39.633Z,17.11
2018-10-18T16:57:32.496Z,17.05
2018-10-18T17:02:25.015Z,17.00
2018-10-18T17:07:17.598Z,16.98
2018-10-18T17:12:10.372Z,16.92
2018-10-18T17:17:02.995Z,16.87
2018-10-18T17:21:55.508Z,16.81
2018-10-18T17:26:48.139Z,16.75
2018-10-18T17:31:40.637Z,16.69
2018-10-18T17:36:33.194Z,16.66
2018-10-18T17:41:26.110Z,16.62
2018-10-18T17:46:18.776Z,16.56
2018-10-18T17:51:11.454Z,16.52
2018-10-18T17:56:04.527Z,16.50
2018-10-18T18:00:57.142Z,16.46
2018-10-18T18:05:50.402Z,16.44
2018-10-18T18:10:43.173Z,16.41
2018-10-18T18:15:35.760Z,16.40
2018-10-18T18:20:28.401Z,16.37
2018-10-18T18:25:20.976Z,16.35
2018-10-18T18:30:14.641Z,16.34
2018-10-18T18:35:07.475Z,16.32
2018-10-18T18:40:00.130Z,16.27
2018-10-18T18:44:58.515Z,16.24
2018-10-18T18:49:51.247Z,16.20
2018-10-18T18:54:44.017Z,16.16
2018-10-18T18:59:36.609Z,16.12
2018-10-18T19:04:29.212Z,16.08
2018-10-18T19:09:21.881Z,16.05
2018-10-18T19:14:14.606Z,16.03
2018-10-18T19:19:07.277Z,15.99
2018-10-18T19:23:59.968Z,15.94
2018-10-18T19:28:52.579Z,15.90
2018-10-18T19:33:45.341Z,15.86
2018-10-18T19:38:38.148Z,15.80
2018-10-18T19:43:30.763Z,15.79
2018-10-18T19:48:23.450Z,15.77
2018-10-18T19:53:17.247Z,15.76
2018-10-18T19:58:10.328Z,15.75
2018-10-18T20:03:03.079Z,15.72
2018-10-18T20:07:55.847Z,15.70
2018-10-18T20:12:48.489Z,15.67
2018-10-18T20:17:41.197Z,15.65
2018-10-18T20:22:33.748Z,15.63
2018-10-18T20:27:26.654Z,15.59
2018-10-18T20:32:19.434Z,15.57
2018-10-18T20:37:12.067Z,15.54
2018-10-18T20:42:05.048Z,15.52
2018-10-18T20:46:57.982Z,15.49
2018-10-18T20:51:50.484Z,15.45
2018-10-18T20:56:43.097Z,15.44
2018-10-18T21:01:35.727Z,15.40
2018-10-18T21:06:28.641Z,15.39
2018-10-18T21:11:21.216Z,15.38
2018-10-18T21:16:13.817Z,15.36
2018-10-18T21:21:06.479Z,15.32
2018-10-18T21:25:59.265Z,15.28
2018-10-18T21:30:51.869Z,15.22
2018-10-18T21:35:44.466Z,15.17
2018-10-18T21:40:37.080Z,15.15
2018-10-18T21:45:29.845Z,15.11
2018-10-18T21:50:22.502Z,15.07
2018-10-18T21:55:15.130Z,15.04
2018-10-18T22:00:13.999Z,14.99
2018-10-18T22:05:06.720Z,14.95
2018-10-18T22:09:59.309Z,14.88
2018-10-18T22:14:51.963Z,14.82
2018-10-18T22:19:44.766Z,14.78
2018-10-18T22:24:37.413Z,14.75
2018-10-18T22:29:30.035Z,14.71
2018-10-18T22:34:22.718Z,14.68
2018-10-18T22:39:15.278Z,14.63
2018-10-18T22:44:08.439Z,14.60
2018-10-18T22:49:01.080Z,14.55
2018-10-18T22:53:53.693Z,14.52
2018-10-18T22:58:46.380Z,14.48
2018-10-18T23:03:39.014Z,14.43
2018-10-18T23:08:31.732Z,14.38
2018-10-18T23:13:24.507Z,14.35
2018-10-18T23:18:17.159Z,14.32
2018-10-18T23:23:10.570Z,14.32
2018-10-18T23:28:03.237Z,14.26
2018-10-18T23:32:55.886Z,14.21
2018-10-18T23:37:48.537Z,14.17
2018-10-18T23:42:41.171Z,14.12
2018-10-18T23:47:33.758Z,14.06
2018-10-18T23:52:26.351Z,13.99
2018-10-18T23:57:19.026Z,13.94
